Terminal Aerodrome Forecast
Issued by NWS

Home | Current Version | Previous Version | Text Only | Print | Product List | Glossary On
Versions: 1 2 3 4 5 6 7 8 9 10 11 12 13 14 15
286
FTUS41 KBTV 282336
TAFSLK
TAF
KSLK 282336Z 2900/2924 00000KT P6SM BKN080
     FM290500 00000KT 1SM BR BKN100
      TEMPO 2907/2911 1/2SM FG BKN003
     FM291200 VRB03KT P6SM BKN045
     FM291500 36007KT P6SM SCT060 BKN120=

USA.gov is the U.S. government's official web portal to all federal, state and local government web resources and services.